Time;durP1;ratioP1;P1;durP2;ratioP2;P2;SDS_P1;SDS_P2;PMS_P1;PMS_P2;Temp;Humidity;BMP_temperature;BMP_pressure;BME280_temperature;BME280_humidity;BME280_pressure;Samples;Min_cycle;Max_cycle;Signal;HPM_P1;HPM_P2
2023/01/23 00:00:52;;;;;;;25.27;14.35;;;1.50;99.90;;;;;;5029910;28;20101;-72
2023/01/23 00:03:17;;;;;;;24.90;14.63;;;1.60;99.90;;;;;;5030472;28;20067;-73
2023/01/23 00:05:43;;;;;;;22.07;13.40;;;1.60;99.90;;;;;;5029812;28;20025;-72
2023/01/23 00:08:10;;;;;;;25.98;15.02;;;1.50;99.90;;;;;;5029598;28;20034;-74
2023/01/23 00:10:37;;;;;;;26.00;14.50;;;1.50;99.90;;;;;;5029511;28;20028;-70
2023/01/23 00:13:03;;;;;;;28.48;13.50;;;1.50;99.90;;;;;;5028204;28;20535;-75
2023/01/23 00:15:28;;;;;;;24.02;14.68;;;1.50;99.90;;;;;;5029843;28;20033;-72
2023/01/23 00:17:54;;;;;;;26.08;14.45;;;1.50;99.90;;;;;;5029845;28;20030;-77
2023/01/23 00:20:20;;;;;;;23.20;13.40;;;1.50;99.90;;;;;;5029500;28;20037;-72
2023/01/23 00:22:45;;;;;;;24.97;14.43;;;1.50;99.90;;;;;;5029943;28;20038;-76
2023/01/23 00:25:11;;;;;;;28.20;14.70;;;1.50;99.90;;;;;;5029973;28;20104;-75
2023/01/23 00:27:36;;;;;;;26.03;14.17;;;1.50;99.90;;;;;;5029445;28;20029;-72
2023/01/23 00:30:03;;;;;;;29.43;16.67;;;1.50;99.90;;;;;;5029506;28;20021;-73
2023/01/23 00:32:28;;;;;;;29.55;15.98;;;1.50;99.90;;;;;;5028565;28;20041;-73
2023/01/23 00:34:54;;;;;;;26.03;14.93;;;1.50;99.90;;;;;;5029372;28;20037;-75
2023/01/23 00:37:19;;;;;;;24.53;15.10;;;1.50;99.90;;;;;;5011307;28;20040;-72
2023/01/23 00:39:45;;;;;;;98.97;34.45;;;1.50;99.90;;;;;;5029111;28;20036;-74
2023/01/23 00:42:11;;;;;;;29.80;16.90;;;1.50;99.90;;;;;;5029086;28;20055;-71
2023/01/23 00:44:37;;;;;;;29.08;15.77;;;1.50;99.90;;;;;;5029169;28;20524;-69
2023/01/23 00:47:03;;;;;;;33.50;16.83;;;1.40;99.90;;;;;;5027648;28;20041;-70
2023/01/23 00:49:29;;;;;;;61.73;30.20;;;1.50;99.90;;;;;;5028753;28;20485;-70
2023/01/23 00:51:55;;;;;;;71.57;30.88;;;1.50;99.90;;;;;;5028765;28;20377;-72
2023/01/23 00:54:22;;;;;;;41.92;20.55;;;1.50;99.90;;;;;;5028743;28;20184;-73
2023/01/23 00:56:47;;;;;;;;;;;1.50;99.90;;;;;;5029757;28;20028;-75
2023/01/23 00:59:13;;;;;;;36.25;19.90;;;1.50;99.90;;;;;;5028912;28;19909;-72
2023/01/23 01:01:38;;;;;;;36.83;18.30;;;1.50;99.90;;;;;;5028697;28;20052;-70
2023/01/23 01:04:05;;;;;;;75.30;33.28;;;1.50;99.90;;;;;;5028989;28;20823;-71
2023/01/23 01:06:30;;;;;;;41.13;21.17;;;1.50;99.90;;;;;;5028880;28;20061;-70
2023/01/23 01:08:56;;;;;;;74.17;35.40;;;1.50;99.90;;;;;;5029022;28;20485;-70
2023/01/23 01:11:23;;;;;;;26.83;15.82;;;1.50;99.90;;;;;;5028853;28;20027;-71
2023/01/23 01:13:48;;;;;;;38.08;18.42;;;1.50;99.90;;;;;;5029301;28;20025;-77
2023/01/23 01:16:14;;;;;;;28.60;16.57;;;1.50;99.90;;;;;;5028982;28;20370;-70
2023/01/23 01:18:40;;;;;;;31.13;17.42;;;1.40;99.90;;;;;;5018511;28;20288;-74
2023/01/23 01:21:09;;;;;;;26.85;15.07;;;1.40;99.90;;;;;;4991068;28;20030;-71
2023/01/23 01:23:35;;;;;;;25.77;14.93;;;1.40;99.90;;;;;;5008786;28;20401;-75
2023/01/23 01:26:01;;;;;;;;;;;1.50;99.90;;;;;;5009501;28;20038;-75
2023/01/23 01:28:29;;;;;;;29.40;15.98;;;1.50;99.90;;;;;;5008693;28;20396;-74
2023/01/23 01:30:55;;;;;;;29.20;16.60;;;1.50;99.90;;;;;;4990921;28;20028;-77
2023/01/23 01:33:23;;;;;;;35.92;18.85;;;1.40;99.90;;;;;;5009162;28;20032;-72
2023/01/23 01:35:49;;;;;;;28.17;15.63;;;1.40;99.90;;;;;;5018782;28;20087;-70
2023/01/23 01:38:14;;;;;;;57.25;25.80;;;1.40;99.90;;;;;;5028293;28;20029;-72
2023/01/23 01:40:40;;;;;;;71.13;33.65;;;1.40;99.90;;;;;;5036802;28;20468;-70
2023/01/23 01:43:14;;;;;;;55.58;25.30;;;1.50;99.90;;;;;;5048108;28;20459;-71
2023/01/23 01:46:12;;;;;;;44.35;23.40;;;1.50;99.90;;;;;;5048205;28;20516;-71
2023/01/23 01:48:59;;;;;;;38.70;20.40;;;1.50;99.90;;;;;;5048178;28;20021;-70
2023/01/23 01:51:28;;;;;;;;;;;1.50;99.90;;;;;;5048518;28;20021;-70
2023/01/23 01:54:00;;;;;;;39.08;19.95;;;1.50;99.90;;;;;;5034609;28;19909;-69
2023/01/23 01:56:29;;;;;;;30.50;17.83;;;1.50;99.90;;;;;;5028041;28;20107;-73
2023/01/23 01:58:56;;;;;;;29.27;17.05;;;1.50;99.90;;;;;;5027882;28;20657;-71
2023/01/23 02:01:21;;;;;;;27.27;15.82;;;1.50;99.90;;;;;;5027918;28;20528;-71
2023/01/23 02:03:49;;;;;;;31.17;16.75;;;1.50;99.90;;;;;;5028556;28;20112;-72
2023/01/23 02:06:15;;;;;;;27.73;16.33;;;1.40;99.90;;;;;;5028114;28;20060;-70
2023/01/23 02:09:08;;;;;;;31.92;17.15;;;1.50;99.90;;;;;;5028104;28;20079;-72
2023/01/23 02:11:34;;;;;;;30.70;16.15;;;1.50;99.90;;;;;;5028286;28;20037;-70
2023/01/23 02:14:00;;;;;;;33.65;17.70;;;1.50;99.90;;;;;;5028139;28;20018;-74
2023/01/23 02:16:32;;;;;;;29.17;16.67;;;1.50;99.90;;;;;;5027685;28;20073;-70
2023/01/23 02:19:03;;;;;;;34.15;18.08;;;1.50;99.90;;;;;;5027787;28;20018;-72
2023/01/23 02:21:28;;;;;;;28.17;16.25;;;1.50;99.90;;;;;;5028076;28;20508;-74
2023/01/23 02:24:00;;;;;;;33.22;18.08;;;1.50;99.90;;;;;;5027810;28;20030;-71
2023/01/23 02:26:35;;;;;;;30.73;17.70;;;1.40;99.90;;;;;;5027834;28;20117;-72
2023/01/23 02:29:02;;;;;;;27.20;16.13;;;1.50;99.90;;;;;;5027996;28;20037;-74
2023/01/23 02:31:28;;;;;;;29.60;15.95;;;1.50;99.90;;;;;;5027849;28;20095;-75
2023/01/23 02:33:55;;;;;;;27.10;15.20;;;1.50;99.90;;;;;;5032179;28;20485;-70
2023/01/23 02:36:28;;;;;;;30.25;16.17;;;1.50;99.90;;;;;;5048086;28;20469;-73
2023/01/23 02:39:07;;;;;;;26.38;15.75;;;1.50;99.90;;;;;;5047524;28;20032;-70
2023/01/23 02:41:38;;;;;;;29.42;16.02;;;1.50;99.90;;;;;;5047655;28;20471;-72
2023/01/23 02:44:11;;;;;;;26.70;14.77;;;1.50;99.90;;;;;;5011507;28;20123;-71
2023/01/23 02:46:37;;;;;;;26.08;15.15;;;1.50;99.90;;;;;;5027778;28;20036;-71
2023/01/23 02:49:03;;;;;;;28.58;15.93;;;1.50;99.90;;;;;;5009853;28;20022;-72
2023/01/23 02:51:29;;;;;;;27.55;15.30;;;1.50;99.90;;;;;;5027573;28;20044;-74
2023/01/23 02:53:54;;;;;;;29.00;15.67;;;1.40;99.90;;;;;;5027804;28;20025;-70
2023/01/23 02:56:20;;;;;;;29.30;15.50;;;1.50;99.90;;;;;;5013138;28;20727;-70
2023/01/23 03:01:34;;;;;;;22.48;13.88;;;1.40;99.90;;;;;;5031271;28;20048;-71
2023/01/23 03:04:03;;;;;;;25.95;15.13;;;1.40;99.90;;;;;;5031340;28;20160;-70
2023/01/23 03:06:34;;;;;;;25.35;15.50;;;1.40;99.90;;;;;;5031307;28;20032;-72
2023/01/23 03:09:06;;;;;;;26.48;15.23;;;1.40;99.90;;;;;;5030627;28;20033;-71
2023/01/23 03:11:32;;;;;;;25.92;14.18;;;1.40;99.90;;;;;;5013342;28;20037;-70
2023/01/23 03:13:59;;;;;;;25.58;13.55;;;1.40;99.90;;;;;;5027546;28;20022;-71
2023/01/23 03:16:26;;;;;;;26.08;15.63;;;1.40;99.90;;;;;;5031070;28;20081;-71
2023/01/23 03:18:51;;;;;;;25.35;14.90;;;1.40;99.90;;;;;;5031222;28;20489;-71
2023/01/23 03:21:17;;;;;;;26.40;14.97;;;1.40;99.90;;;;;;5030935;28;20044;-73
2023/01/23 03:23:45;;;;;;;24.30;14.17;;;1.40;99.90;;;;;;5030603;28;20041;-71
2023/01/23 03:26:11;;;;;;;23.90;14.38;;;1.40;99.90;;;;;;5030897;28;20021;-70
2023/01/23 03:31:20;;;;;;;26.13;14.98;;;1.30;99.90;;;;;;5030629;28;20043;-70
2023/01/23 03:33:47;;;;;;;25.35;15.15;;;1.30;99.90;;;;;;5030385;28;20428;-70
2023/01/23 03:36:13;;;;;;;28.20;15.30;;;1.40;99.90;;;;;;5030392;28;20037;-70
2023/01/23 03:41:23;;;;;;;29.40;15.13;;;1.40;99.90;;;;;;5030460;28;20402;-75
2023/01/23 03:41:25;;;;;;;25.30;14.95;;;1.30;99.90;;;;;;5030476;28;20663;-75
2023/01/23 03:43:50;;;;;;;25.38;14.45;;;1.40;99.90;;;;;;5030266;28;20038;-73
2023/01/23 03:46:16;;;;;;;27.50;15.40;;;1.40;99.90;;;;;;5030495;28;20030;-77
2023/01/23 03:48:41;;;;;;;25.07;14.13;;;1.40;99.90;;;;;;5030239;28;20272;-71
2023/01/23 03:51:07;;;;;;;27.80;15.60;;;1.40;99.90;;;;;;5029855;28;20025;-70
2023/01/23 03:53:33;;;;;;;25.05;14.48;;;1.40;99.90;;;;;;5030289;28;20087;-69
2023/01/23 03:55:59;;;;;;;29.90;14.45;;;1.30;99.90;;;;;;5030049;28;20030;-69
2023/01/23 03:58:24;;;;;;;25.58;13.85;;;1.30;99.90;;;;;;5030273;28;20025;-71
2023/01/23 04:00:50;;;;;;;22.87;13.17;;;1.30;99.90;;;;;;5030131;28;20032;-71
2023/01/23 04:03:16;;;;;;;25.85;14.35;;;1.40;99.90;;;;;;5028801;28;20049;-73
2023/01/23 04:05:41;;;;;;;23.53;14.30;;;1.40;99.90;;;;;;5029827;28;20045;-71
2023/01/23 04:08:07;;;;;;;27.20;15.40;;;1.40;99.90;;;;;;5028792;28;20481;-70
2023/01/23 04:10:32;;;;;;;27.63;15.27;;;1.40;99.90;;;;;;5029531;28;20022;-71
2023/01/23 04:12:58;;;;;;;24.97;13.97;;;1.30;99.90;;;;;;5029795;28;20035;-72
2023/01/23 04:15:23;;;;;;;27.03;14.50;;;1.30;99.90;;;;;;5030181;28;20357;-69
2023/01/23 04:17:49;;;;;;;25.40;14.00;;;1.30;99.90;;;;;;5030041;28;20079;-72
2023/01/23 04:20:15;;;;;;;27.20;15.27;;;1.30;99.90;;;;;;5029702;28;20298;-73
2023/01/23 04:22:40;;;;;;;25.73;15.17;;;1.30;99.90;;;;;;5029569;28;20501;-72
2023/01/23 04:25:07;;;;;;;22.92;13.98;;;1.40;99.90;;;;;;5029464;28;20368;-72
2023/01/23 04:27:32;;;;;;;26.40;14.73;;;1.40;99.90;;;;;;5029240;28;20552;-71
2023/01/23 04:29:58;;;;;;;25.23;14.23;;;1.40;99.90;;;;;;5029642;28;20121;-71
2023/01/23 04:32:24;;;;;;;23.48;13.82;;;1.40;99.90;;;;;;5029843;28;20060;-73
2023/01/23 04:34:50;;;;;;;24.98;13.98;;;1.40;99.90;;;;;;5028764;28;20070;-73
2023/01/23 04:37:16;;;;;;;27.10;15.07;;;1.30;99.90;;;;;;5029607;28;20498;-72
2023/01/23 04:39:42;;;;;;;;;;;1.40;99.90;;;;;;5011999;28;20091;-73
2023/01/23 04:42:07;;;;;;;25.45;14.85;;;1.40;99.90;;;;;;5029518;28;19917;-72
2023/01/23 04:44:33;;;;;;;25.57;14.60;;;1.30;99.90;;;;;;5029571;28;20029;-73
2023/01/23 04:46:59;;;;;;;25.40;13.63;;;1.40;99.90;;;;;;5028022;28;20287;-70
2023/01/23 04:49:24;;;;;;;23.48;13.65;;;1.40;99.90;;;;;;5029074;28;20029;-74
2023/01/23 04:51:51;;;;;;;25.02;13.93;;;1.40;99.90;;;;;;5027677;28;20033;-73
2023/01/23 04:54:18;;;;;;;22.02;13.38;;;1.40;99.90;;;;;;5029219;28;20116;-77
2023/01/23 04:56:44;;;;;;;33.72;14.82;;;1.40;99.90;;;;;;5011414;28;20023;-76
2023/01/23 04:59:10;;;;;;;;;;;1.30;99.90;;;;;;5029743;28;20466;-72
2023/01/23 05:01:36;;;;;;;25.83;13.60;;;1.30;99.90;;;;;;5028791;28;19913;-71
2023/01/23 05:04:02;;;;;;;24.05;13.90;;;1.30;99.90;;;;;;5028937;28;20104;-70
2023/01/23 05:06:28;;;;;;;29.40;14.60;;;1.30;99.90;;;;;;5028964;28;20036;-72
2023/01/23 05:08:54;;;;;;;24.63;13.82;;;1.40;99.90;;;;;;5009906;28;20038;-70
2023/01/23 05:11:20;;;;;;;26.98;14.63;;;1.40;99.90;;;;;;5019500;28;20037;-70
2023/01/23 05:13:45;;;;;;;24.92;13.35;;;1.40;99.90;;;;;;5008728;28;20037;-70
2023/01/23 05:16:11;;;;;;;23.33;13.25;;;1.40;99.90;;;;;;5009452;28;20025;-69
2023/01/23 05:18:37;;;;;;;21.85;12.85;;;1.40;99.90;;;;;;5013156;28;20412;-72
2023/01/23 05:21:03;;;;;;;25.58;14.68;;;1.40;99.90;;;;;;5016795;28;20037;-71
2023/01/23 05:23:29;;;;;;;28.27;15.05;;;1.40;99.90;;;;;;5017242;28;20137;-72
2023/01/23 05:25:54;;;;;;;21.50;13.70;;;1.40;99.90;;;;;;5018737;28;20465;-73
2023/01/23 05:28:20;;;;;;;24.73;14.23;;;1.40;99.90;;;;;;5006216;28;20396;-71
2023/01/23 05:30:46;;;;;;;22.93;13.70;;;1.40;99.90;;;;;;5013215;28;20116;-72
2023/01/23 05:33:11;;;;;;;24.50;15.52;;;1.40;99.90;;;;;;5022189;28;20033;-72
2023/01/23 05:35:38;;;;;;;25.13;13.83;;;1.40;99.90;;;;;;5021914;28;20524;-71
2023/01/23 05:38:03;;;;;;;22.58;13.70;;;1.40;99.90;;;;;;5025406;28;20037;-71
2023/01/23 05:40:29;;;;;;;24.40;14.00;;;1.40;99.90;;;;;;5018063;28;20060;-72
2023/01/23 05:42:54;;;;;;;21.87;13.47;;;1.40;99.90;;;;;;5019250;28;20397;-72
2023/01/23 05:45:20;;;;;;;24.40;13.43;;;1.40;99.90;;;;;;5018182;28;20592;-70
2023/01/23 05:47:46;;;;;;;21.57;13.13;;;1.40;99.90;;;;;;5010195;28;20038;-71
2023/01/23 05:50:17;;;;;;;22.48;13.70;;;1.40;99.90;;;;;;5018889;28;20029;-70
2023/01/23 05:52:44;;;;;;;21.33;13.43;;;1.40;99.90;;;;;;5006589;28;20061;-70
2023/01/23 05:55:09;;;;;;;21.45;13.60;;;1.40;99.90;;;;;;5011803;28;20077;-73
2023/01/23 05:57:35;;;;;;;23.77;13.77;;;1.40;99.90;;;;;;5016649;28;20042;-72
2023/01/23 06:00:02;;;;;;;22.40;12.80;;;1.40;99.90;;;;;;5025846;28;20049;-71
2023/01/23 06:02:27;;;;;;;24.58;13.82;;;1.40;99.90;;;;;;5020868;28;20038;-76
2023/01/23 06:04:53;;;;;;;25.23;14.30;;;1.40;99.90;;;;;;5005445;28;20026;-73
2023/01/23 06:07:19;;;;;;;27.23;13.83;;;1.40;99.90;;;;;;5017767;28;20469;-71
2023/01/23 06:09:45;;;;;;;26.08;14.95;;;1.40;99.90;;;;;;5020796;28;20040;-71
2023/01/23 06:12:11;;;;;;;22.65;13.07;;;1.30;99.90;;;;;;5014692;28;20084;-71
2023/01/23 06:14:37;;;;;;;20.77;12.95;;;1.40;99.90;;;;;;5017800;28;20037;-71
2023/01/23 06:17:02;;;;;;;26.00;14.63;;;1.40;99.90;;;;;;5012435;28;20040;-70
2023/01/23 06:19:28;;;;;;;23.10;14.68;;;1.40;99.90;;;;;;5014704;28;20281;-70
2023/01/23 06:21:54;;;;;;;26.30;14.33;;;1.40;99.90;;;;;;5018557;28;20051;-70
2023/01/23 06:24:19;;;;;;;29.07;15.03;;;1.40;99.90;;;;;;5017907;28;20060;-70
2023/01/23 06:26:45;;;;;;;20.87;13.00;;;1.40;99.90;;;;;;5010509;28;20068;-71
2023/01/23 06:29:10;;;;;;;22.17;13.83;;;1.40;99.90;;;;;;5018435;28;20038;-71
2023/01/23 06:31:36;;;;;;;23.80;13.57;;;1.40;99.90;;;;;;5024082;28;20391;-73
2023/01/23 06:34:02;;;;;;;24.87;13.33;;;1.40;99.90;;;;;;5006443;28;20038;-72
2023/01/23 06:36:27;;;;;;;22.35;13.75;;;1.50;99.90;;;;;;5022259;28;20048;-70
2023/01/23 06:38:53;;;;;;;24.58;13.35;;;1.40;99.90;;;;;;5026003;28;20037;-71
2023/01/23 06:41:19;;;;;;;26.08;13.63;;;1.40;99.90;;;;;;5017216;28;20042;-73
2023/01/23 06:43:44;;;;;;;22.50;12.55;;;1.40;99.90;;;;;;5021021;28;20034;-72
2023/01/23 06:46:11;;;;;;;27.83;13.30;;;1.40;99.90;;;;;;5023817;28;20057;-74
2023/01/23 06:48:37;;;;;;;;;;;1.40;99.90;;;;;;5023270;28;20469;-73
2023/01/23 06:51:04;;;;;;;26.73;14.38;;;1.40;99.90;;;;;;5030286;28;19909;-73
2023/01/23 06:53:31;;;;;;;27.85;14.55;;;1.40;99.90;;;;;;5030592;28;20037;-73
2023/01/23 06:56:01;;;;;;;26.27;13.38;;;1.40;99.90;;;;;;5030212;28;20061;-75
2023/01/23 06:58:27;;;;;;;24.08;13.27;;;1.40;99.90;;;;;;5020348;28;20037;-75
2023/01/23 07:00:53;;;;;;;24.15;14.48;;;1.40;99.90;;;;;;5025086;28;20025;-74
2023/01/23 07:03:19;;;;;;;26.63;14.73;;;1.40;99.90;;;;;;5024952;28;20037;-73
2023/01/23 07:05:44;;;;;;;25.98;13.82;;;1.40;99.90;;;;;;5022349;28;20029;-75
2023/01/23 07:08:10;;;;;;;22.67;14.13;;;1.50;99.90;;;;;;5023271;28;20041;-72
2023/01/23 07:10:36;;;;;;;24.20;13.23;;;1.50;99.90;;;;;;5022150;28;20076;-73
2023/01/23 07:13:04;;;;;;;24.05;13.77;;;1.50;99.90;;;;;;5018914;28;20037;-72
2023/01/23 07:15:30;;;;;;;27.00;13.88;;;1.40;99.90;;;;;;5019071;28;20034;-73
2023/01/23 07:17:55;;;;;;;23.17;13.93;;;1.40;99.90;;;;;;5012844;28;20490;-73
2023/01/23 07:20:21;;;;;;;24.50;13.40;;;1.40;99.90;;;;;;5018022;28;20548;-73
2023/01/23 07:22:48;;;;;;;22.42;13.70;;;1.50;99.90;;;;;;5021221;28;20041;-75
2023/01/23 07:25:13;;;;;;;22.75;13.68;;;1.50;99.90;;;;;;5018906;28;20109;-72
2023/01/23 07:27:39;;;;;;;24.67;15.38;;;1.50;99.90;;;;;;5017167;28;20120;-72
2023/01/23 07:30:06;;;;;;;25.13;13.27;;;1.50;99.90;;;;;;5020874;28;20033;-73
2023/01/23 07:32:31;;;;;;;27.35;13.90;;;1.40;99.90;;;;;;5013183;28;20073;-73
2023/01/23 07:34:57;;;;;;;22.93;13.90;;;1.40;99.90;;;;;;5020357;28;20570;-71
2023/01/23 07:37:23;;;;;;;26.80;14.83;;;1.40;99.90;;;;;;5025377;28;20029;-73
2023/01/23 07:39:49;;;;;;;24.23;13.93;;;1.40;99.90;;;;;;5020504;28;20128;-71
2023/01/23 07:42:15;;;;;;;21.98;12.70;;;1.50;99.90;;;;;;5023173;28;20129;-72
2023/01/23 07:44:40;;;;;;;28.00;14.97;;;1.50;99.90;;;;;;5021972;28;20040;-72
2023/01/23 07:47:06;;;;;;;24.67;14.83;;;1.50;99.90;;;;;;5021035;28;20515;-75
2023/01/23 07:49:31;;;;;;;24.33;14.40;;;1.50;99.90;;;;;;5023385;28;20034;-71
2023/01/23 07:51:57;;;;;;;26.00;13.87;;;1.50;99.90;;;;;;5024956;28;20036;-72
2023/01/23 07:54:22;;;;;;;21.80;13.00;;;1.50;99.90;;;;;;5017562;28;20787;-72
2023/01/23 07:56:49;;;;;;;23.30;14.37;;;1.50;99.90;;;;;;5018626;28;20026;-71
2023/01/23 07:59:15;;;;;;;25.98;14.07;;;1.60;99.90;;;;;;5015695;28;20025;-72
2023/01/23 08:01:41;;;;;;;22.92;13.70;;;1.60;99.90;;;;;;5024281;28;20041;-74
2023/01/23 08:04:06;;;;;;;28.02;14.73;;;1.60;99.90;;;;;;5018310;28;20069;-73
2023/01/23 08:06:33;;;;;;;24.37;13.90;;;1.60;99.90;;;;;;5021635;28;20033;-74
2023/01/23 08:08:58;;;;;;;22.77;13.05;;;1.60;99.90;;;;;;5018729;28;20501;-73
2023/01/23 08:11:25;;;;;;;28.63;15.80;;;1.70;99.90;;;;;;5011875;28;20025;-73
2023/01/23 08:13:51;;;;;;;23.90;13.95;;;1.60;99.90;;;;;;5023138;28;20324;-73
2023/01/23 08:16:17;;;;;;;26.75;13.30;;;1.70;99.90;;;;;;5024452;28;20029;-77
2023/01/23 08:18:43;;;;;;;25.33;14.50;;;1.70;99.90;;;;;;5018873;28;20087;-76
2023/01/23 08:21:09;;;;;;;25.15;13.18;;;1.70;99.90;;;;;;5021055;28;20312;-80
2023/01/23 08:23:35;;;;;;;23.50;12.80;;;1.80;99.90;;;;;;5022920;28;20099;-77
2023/01/23 08:26:03;;;;;;;26.70;13.48;;;1.70;99.90;;;;;;5022151;28;20033;-73
2023/01/23 08:28:29;;;;;;;23.77;13.45;;;1.70;99.90;;;;;;5023859;28;20119;-71
2023/01/23 08:31:00;;;;;;;24.52;13.90;;;1.80;99.90;;;;;;5020505;28;20061;-73
2023/01/23 08:33:25;;;;;;;22.52;13.27;;;1.80;99.90;;;;;;5023511;28;20040;-73
2023/01/23 08:35:53;;;;;;;22.65;12.88;;;1.90;99.90;;;;;;5025311;28;20041;-78
2023/01/23 08:38:20;;;;;;;19.63;11.88;;;1.80;99.90;;;;;;5017963;28;20037;-76
2023/01/23 08:40:46;;;;;;;;;;;1.90;99.90;;;;;;5025556;28;20036;-74
2023/01/23 08:43:12;;;;;;;25.02;13.05;;;1.80;99.90;;;;;;5014862;28;19979;-74
2023/01/23 08:45:39;;;;;;;22.23;13.77;;;1.90;99.90;;;;;;5019491;28;20021;-75
2023/01/23 08:48:06;;;;;;;23.55;13.65;;;1.90;99.90;;;;;;5026140;28;20425;-73
2023/01/23 08:50:31;;;;;;;;;;;1.90;99.90;;;;;;5026071;28;20022;-71
2023/01/23 08:52:57;;;;;;;25.73;14.02;;;2.00;99.90;;;;;;5015979;28;19971;-74
2023/01/23 08:55:23;;;;;;;25.93;14.87;;;2.00;99.90;;;;;;5015973;28;20037;-72
2023/01/23 08:57:48;;;;;;;24.30;14.60;;;2.00;99.90;;;;;;5021649;28;20613;-73
2023/01/23 09:00:14;;;;;;;24.13;12.93;;;2.00;99.90;;;;;;5011764;28;20030;-74
2023/01/23 09:02:39;;;;;;;26.67;15.43;;;2.10;99.90;;;;;;5006429;28;20045;-75
2023/01/23 09:05:05;;;;;;;23.97;13.37;;;2.10;99.90;;;;;;5016849;28;20572;-76
2023/01/23 09:07:35;;;;;;;21.35;12.75;;;2.20;99.90;;;;;;5021351;28;20037;-75
2023/01/23 09:10:01;;;;;;;26.75;13.52;;;2.20;99.90;;;;;;5017004;28;20120;-75
2023/01/23 09:12:26;;;;;;;19.83;12.55;;;2.20;99.90;;;;;;5019835;28;20096;-76
2023/01/23 09:14:52;;;;;;;21.23;12.97;;;2.20;99.90;;;;;;5018868;28;20034;-73
2023/01/23 09:17:17;;;;;;;24.43;13.27;;;2.20;99.90;;;;;;5021904;28;20034;-76
2023/01/23 09:19:43;;;;;;;38.50;18.33;;;2.30;99.90;;;;;;5008680;28;20413;-74
2023/01/23 09:22:08;;;;;;;44.90;20.43;;;2.30;99.90;;;;;;5024673;28;20037;-77
2023/01/23 09:24:34;;;;;;;26.60;14.87;;;2.30;99.90;;;;;;5019815;28;20045;-74
2023/01/23 09:27:00;;;;;;;25.40;14.60;;;2.20;99.90;;;;;;5016853;28;20393;-76
2023/01/23 09:29:25;;;;;;;25.07;13.73;;;2.30;99.90;;;;;;5021620;28;20417;-78
2023/01/23 09:31:51;;;;;;;37.77;17.37;;;2.20;99.90;;;;;;5025304;28;20068;-77
2023/01/23 09:34:18;;;;;;;26.90;15.45;;;2.30;99.90;;;;;;5021133;28;20136;-73
2023/01/23 09:36:43;;;;;;;;;;;2.30;99.90;;;;;;5022290;28;20025;-72
2023/01/23 09:39:09;;;;;;;21.48;13.27;;;2.40;99.90;;;;;;5020568;28;20392;-72
2023/01/23 09:41:35;;;;;;;25.08;14.23;;;2.50;99.90;;;;;;5019078;28;20037;-71
2023/01/23 09:44:14;;;;;;;31.13;15.98;;;2.30;99.90;;;;;;5019665;28;20635;-74
2023/01/23 09:46:52;;;;;;;23.17;13.85;;;2.40;99.90;;;;;;5017956;28;20112;-71
2023/01/23 09:49:36;;;;;;;21.63;13.50;;;2.30;99.90;;;;;;5021293;28;20045;-73
2023/01/23 09:52:18;;;;;;;21.75;12.68;;;2.40;99.90;;;;;;5013477;28;20081;-74
2023/01/23 09:55:07;;;;;;;21.73;12.68;;;2.50;99.90;;;;;;5019740;28;20025;-70
2023/01/23 09:57:53;;;;;;;29.50;14.90;;;2.50;99.90;;;;;;5005747;28;20553;-71
2023/01/23 10:00:28;;;;;;;26.33;13.88;;;2.50;99.90;;;;;;5017370;28;20017;-75
2023/01/23 10:02:55;;;;;;;31.50;18.10;;;2.50;99.90;;;;;;5016080;28;20463;-71
2023/01/23 10:05:45;;;;;;;37.78;19.42;;;2.50;99.90;;;;;;5022363;28;20029;-70
2023/01/23 10:08:30;;;;;;;32.35;16.45;;;2.60;99.90;;;;;;5011470;28;20053;-69
2023/01/23 10:11:03;;;;;;;27.83;15.82;;;2.50;99.90;;;;;;5023557;28;20030;-71
2023/01/23 10:13:40;;;;;;;23.55;14.05;;;2.60;99.90;;;;;;5023481;28;20029;-71
2023/01/23 10:16:18;;;;;;;28.10;16.50;;;2.70;99.90;;;;;;5017560;28;20033;-73
2023/01/23 10:19:13;;;;;;;23.55;14.45;;;2.70;99.90;;;;;;5021777;28;20108;-70
2023/01/23 10:21:54;;;;;;;31.42;17.75;;;2.60;99.90;;;;;;4998224;28;20424;-71
2023/01/23 10:24:27;;;;;;;25.65;14.65;;;2.80;99.90;;;;;;5025932;28;20033;-71
2023/01/23 10:26:59;;;;;;;24.25;14.10;;;2.80;99.90;;;;;;5013325;28;20022;-72
2023/01/23 10:29:40;;;;;;;30.60;17.98;;;2.80;99.90;;;;;;5021258;28;20034;-69
2023/01/23 10:32:25;;;;;;;31.38;16.33;;;2.90;99.90;;;;;;5021575;28;20035;-71
2023/01/23 10:34:54;;;;;;;22.35;13.90;;;2.90;99.90;;;;;;5021433;28;20057;-75
2023/01/23 10:37:35;;;;;;;24.58;14.23;;;2.90;99.90;;;;;;5026149;28;20401;-73
2023/01/23 10:40:10;;;;;;;25.08;12.90;;;2.90;99.90;;;;;;5020176;28;20080;-71
2023/01/23 10:42:35;;;;;;;20.60;12.10;;;2.90;99.90;;;;;;5023648;28;20397;-70
2023/01/23 10:45:01;;;;;;;23.70;13.97;;;2.90;99.90;;;;;;5025694;28;20544;-70
2023/01/23 10:47:45;;;;;;;25.07;13.40;;;3.00;99.90;;;;;;5020078;28;20117;-72
2023/01/23 10:50:11;;;;;;;22.70;13.25;;;3.00;99.90;;;;;;5032816;28;20060;-74
2023/01/23 10:52:40;;;;;;;22.38;13.35;;;3.10;99.90;;;;;;5012583;28;20323;-71
2023/01/23 10:55:32;;;;;;;22.15;13.68;;;3.10;99.90;;;;;;5022897;28;20037;-73
2023/01/23 10:58:02;;;;;;;22.58;13.23;;;3.10;99.90;;;;;;5017997;28;20079;-70
2023/01/23 11:00:35;;;;;;;25.17;13.90;;;3.10;99.90;;;;;;5022033;28;20026;-70
2023/01/23 11:03:20;;;;;;;21.52;12.40;;;3.00;99.90;;;;;;5022274;28;20120;-73
2023/01/23 11:05:55;;;;;;;21.52;11.88;;;3.00;99.90;;;;;;5024636;28;20025;-70
2023/01/23 11:08:30;;;;;;;20.75;11.93;;;3.10;99.90;;;;;;5008712;28;20061;-76
2023/01/23 11:11:21;;;;;;;24.63;12.68;;;3.20;99.90;;;;;;5024675;28;20037;-76
2023/01/23 11:13:50;;;;;;;20.75;12.93;;;3.20;99.90;;;;;;5001074;28;20072;-74
2023/01/23 11:16:21;;;;;;;25.20;13.07;;;3.20;99.90;;;;;;5022689;28;20453;-76
2023/01/23 11:18:53;;;;;;;20.77;11.38;;;3.20;99.90;;;;;;5020736;28;20030;-78
2023/01/23 11:21:21;;;;;;;22.33;11.73;;;3.30;99.90;;;;;;5011962;28;20441;-76
2023/01/23 11:23:46;;;;;;;19.70;11.18;;;3.30;99.90;;;;;;5008387;28;20071;-77
2023/01/23 11:26:31;;;;;;;24.57;11.33;;;3.20;99.90;;;;;;5022138;28;20456;-78
2023/01/23 11:28:57;;;;;;;20.25;12.05;;;3.30;99.90;;;;;;5022543;28;20112;-72
2023/01/23 11:31:25;;;;;;;22.23;13.33;;;3.20;99.90;;;;;;5019087;28;20117;-76
2023/01/23 11:33:56;;;;;;;19.13;11.55;;;3.30;99.90;;;;;;5011369;28;20124;-78
2023/01/23 11:36:31;;;;;;;18.23;10.80;;;3.30;99.90;;;;;;5008157;28;20030;-75
2023/01/23 11:39:12;;;;;;;18.08;10.80;;;3.30;99.90;;;;;;5018311;28;20038;-78
2023/01/23 11:41:38;;;;;;;16.52;10.25;;;3.40;99.90;;;;;;5021957;28;20033;-78
2023/01/23 11:44:18;;;;;;;19.38;10.35;;;3.40;99.90;;;;;;5026883;28;20044;-80
2023/01/23 11:47:28;;;;;;;17.20;10.60;;;3.50;99.90;;;;;;5019563;28;20029;-76
2023/01/23 11:50:13;;;;;;;19.20;10.43;;;3.50;99.90;;;;;;5011867;28;20292;-76
2023/01/23 11:52:48;;;;;;;19.10;10.85;;;3.50;99.90;;;;;;5019662;28;20025;-79
2023/01/23 11:56:08;;;;;;;19.33;10.07;;;3.50;99.70;;;;;;5018950;28;20029;-72
2023/01/23 11:58:57;;;;;;;16.50;9.95;;;3.50;99.80;;;;;;4934089;29;20148;-74
2023/01/23 12:01:38;;;;;;;16.77;10.77;;;3.50;99.40;;;;;;5016212;28;20083;-73
2023/01/23 12:04:41;;;;;;;17.88;9.63;;;3.50;99.30;;;;;;5001202;28;20124;-73
2023/01/23 12:07:15;;;;;;;18.48;10.38;;;3.50;98.80;;;;;;5015126;28;20033;-74
2023/01/23 12:09:57;;;;;;;17.65;11.18;;;3.60;98.90;;;;;;5021216;28;20571;-72
2023/01/23 12:12:35;;;;;;;15.35;9.60;;;3.40;98.60;;;;;;5016242;28;20029;-75
2023/01/23 12:15:12;;;;;;;16.00;9.90;;;3.40;98.70;;;;;;5018242;28;20030;-73
2023/01/23 12:17:48;;;;;;;15.98;9.80;;;3.40;98.70;;;;;;5018219;28;20493;-75
2023/01/23 12:20:53;;;;;;;18.00;10.20;;;3.40;98.40;;;;;;5024005;28;20017;-78
2023/01/23 12:23:25;;;;;;;16.00;9.70;;;3.40;99.00;;;;;;5020024;28;20043;-71
2023/01/23 12:26:12;;;;;;;16.35;9.90;;;3.40;98.50;;;;;;5021712;28;20032;-72
2023/01/23 12:28:51;;;;;;;;;;;3.50;98.60;;;;;;5005109;28;20029;-74
2023/01/23 12:31:40;;;;;;;17.23;9.82;;;3.60;98.80;;;;;;5013864;28;19912;-73
2023/01/23 12:34:22;;;;;;;19.73;11.48;;;3.50;98.10;;;;;;5017292;28;20025;-70
2023/01/23 12:37:10;;;;;;;17.13;9.95;;;3.50;98.30;;;;;;5017157;28;20064;-73
2023/01/23 12:39:57;;;;;;;18.42;10.15;;;3.70;98.40;;;;;;5008477;28;20030;-73
2023/01/23 12:42:29;;;;;;;15.27;9.60;;;3.70;98.00;;;;;;5018946;28;20040;-78
2023/01/23 12:45:10;;;;;;;19.27;11.20;;;3.80;97.60;;;;;;5017661;28;20534;-73
2023/01/23 12:47:54;;;;;;;17.77;10.30;;;3.70;97.40;;;;;;5020119;28;20412;-75
2023/01/23 12:50:41;;;;;;;16.10;10.50;;;3.70;97.90;;;;;;5023932;28;20435;-77
2023/01/23 12:53:13;;;;;;;13.93;8.25;;;3.70;97.70;;;;;;5028176;28;20513;-78
2023/01/23 12:56:04;;;;;;;18.60;9.82;;;3.80;98.00;;;;;;5024654;28;20044;-72
2023/01/23 12:58:34;;;;;;;16.02;8.98;;;3.70;97.80;;;;;;4997387;28;20038;-71